sensor_id;sensor_type;location;lat;lon;timestamp;P1;P2;P0
34240;PMS7003;20503;50.200;19.508;2024-02-26T00:00:05;9;7;5
34240;PMS7003;20503;50.200;19.508;2024-02-26T00:01:11;13;8;6
34240;PMS7003;20503;50.200;19.508;2024-02-26T00:02:17;13;8;6
34240;PMS7003;20503;50.200;19.508;2024-02-26T00:03:20;11;8;6
34240;PMS7003;20503;50.200;19.508;2024-02-26T00:04:21;11;8;6
34240;PMS7003;20503;50.200;19.508;2024-02-26T00:05:22;19;12;8
34240;PMS7003;20503;50.200;19.508;2024-02-26T00:06:50;16;12;7
34240;PMS7003;20503;50.200;19.508;2024-02-26T00:07:56;22;19;13
34240;PMS7003;20503;50.200;19.508;2024-02-26T00:08:58;13;10;8
34240;PMS7003;20503;50.200;19.508;2024-02-26T00:09:59;12;11;7
34240;PMS7003;20503;50.200;19.508;2024-02-26T00:11:01;14;11;8
34240;PMS7003;20503;50.200;19.508;2024-02-26T00:12:27;12;9;7
34240;PMS7003;20503;50.200;19.508;2024-02-26T00:13:29;12;9;6
34240;PMS7003;20503;50.200;19.508;2024-02-26T00:14:30;12;8;6
34240;PMS7003;20503;50.200;19.508;2024-02-26T00:15:44;11;8;5
34240;PMS7003;20503;50.200;19.508;2024-02-26T00:16:45;13;7;5
34240;PMS7003;20503;50.200;19.508;2024-02-26T00:18:03;10;9;7
34240;PMS7003;20503;50.200;19.508;2024-02-26T00:19:12;12;8;6
34240;PMS7003;20503;50.200;19.508;2024-02-26T00:20:14;15;10;8
34240;PMS7003;20503;50.200;19.508;2024-02-26T00:21:29;15;10;7
34240;PMS7003;20503;50.200;19.508;2024-02-26T00:22:31;15;10;7
34240;PMS7003;20503;50.200;19.508;2024-02-26T00:23:32;11;9;6
34240;PMS7003;20503;50.200;19.508;2024-02-26T00:24:33;11;9;6
34240;PMS7003;20503;50.200;19.508;2024-02-26T00:25:35;13;8;6
34240;PMS7003;20503;50.200;19.508;2024-02-26T00:26:38;12;8;6
34240;PMS7003;20503;50.200;19.508;2024-02-26T00:27:39;12;8;6
34240;PMS7003;20503;50.200;19.508;2024-02-26T00:28:44;11;7;5
34240;PMS7003;20503;50.200;19.508;2024-02-26T00:29:46;11;7;5
34240;PMS7003;20503;50.200;19.508;2024-02-26T00:30:47;12;8;4
34240;PMS7003;20503;50.200;19.508;2024-02-26T00:31:48;14;9;6
34240;PMS7003;20503;50.200;19.508;2024-02-26T00:32:50;14;9;6
34240;PMS7003;20503;50.200;19.508;2024-02-26T00:33:51;11;9;6
34240;PMS7003;20503;50.200;19.508;2024-02-26T00:34:54;11;9;6
34240;PMS7003;20503;50.200;19.508;2024-02-26T00:35:55;10;7;5
34240;PMS7003;20503;50.200;19.508;2024-02-26T00:36:56;15;9;6
34240;PMS7003;20503;50.200;19.508;2024-02-26T00:37:57;16;13;9
34240;PMS7003;20503;50.200;19.508;2024-02-26T00:39:02;16;13;9
34240;PMS7003;20503;50.200;19.508;2024-02-26T00:40:05;15;13;9
34240;PMS7003;20503;50.200;19.508;2024-02-26T00:41:10;15;13;9
34240;PMS7003;20503;50.200;19.508;2024-02-26T00:42:12;17;14;9
34240;PMS7003;20503;50.200;19.508;2024-02-26T00:43:13;17;14;9
34240;PMS7003;20503;50.200;19.508;2024-02-26T00:44:19;19;12;8
34240;PMS7003;20503;50.200;19.508;2024-02-26T00:45:49;19;12;8
34240;PMS7003;20503;50.200;19.508;2024-02-26T00:46:57;13;11;8
34240;PMS7003;20503;50.200;19.508;2024-02-26T00:47:59;13;11;8
34240;PMS7003;20503;50.200;19.508;2024-02-26T00:49:08;14;10;7
34240;PMS7003;20503;50.200;19.508;2024-02-26T00:50:09;15;10;7
34240;PMS7003;20503;50.200;19.508;2024-02-26T00:51:12;15;10;7
34240;PMS7003;20503;50.200;19.508;2024-02-26T00:52:15;14;10;7
34240;PMS7003;20503;50.200;19.508;2024-02-26T00:53:17;14;10;7
34240;PMS7003;20503;50.200;19.508;2024-02-26T00:54:18;14;9;6
34240;PMS7003;20503;50.200;19.508;2024-02-26T00:55:20;11;7;5
34240;PMS7003;20503;50.200;19.508;2024-02-26T00:56:22;11;7;5
34240;PMS7003;20503;50.200;19.508;2024-02-26T00:57:24;6;6;4
34240;PMS7003;20503;50.200;19.508;2024-02-26T00:58:25;6;6;4
34240;PMS7003;20503;50.200;19.508;2024-02-26T00:59:27;13;7;5
34240;PMS7003;20503;50.200;19.508;2024-02-26T01:00:29;8;6;4
34240;PMS7003;20503;50.200;19.508;2024-02-26T01:01:31;8;6;4
34240;PMS7003;20503;50.200;19.508;2024-02-26T01:02:33;9;6;4
34240;PMS7003;20503;50.200;19.508;2024-02-26T01:03:43;9;6;4
34240;PMS7003;20503;50.200;19.508;2024-02-26T01:04:44;8;8;5
34240;PMS7003;20503;50.200;19.508;2024-02-26T01:05:46;12;7;5
34240;PMS7003;20503;50.200;19.508;2024-02-26T01:06:47;8;6;4
34240;PMS7003;20503;50.200;19.508;2024-02-26T01:07:49;8;6;5
34240;PMS7003;20503;50.200;19.508;2024-02-26T01:08:50;10;6;5
34240;PMS7003;20503;50.200;19.508;2024-02-26T01:10:00;8;5;4
34240;PMS7003;20503;50.200;19.508;2024-02-26T01:11:03;7;5;5
34240;PMS7003;20503;50.200;19.508;2024-02-26T01:12:05;7;5;5
34240;PMS7003;20503;50.200;19.508;2024-02-26T01:13:09;6;4;4
34240;PMS7003;20503;50.200;19.508;2024-02-26T01:14:10;6;4;4
34240;PMS7003;20503;50.200;19.508;2024-02-26T01:15:11;7;5;4
34240;PMS7003;20503;50.200;19.508;2024-02-26T01:16:13;9;5;4
34240;PMS7003;20503;50.200;19.508;2024-02-26T01:17:14;9;5;4
34240;PMS7003;20503;50.200;19.508;2024-02-26T01:18:15;9;6;5
34240;PMS7003;20503;50.200;19.508;2024-02-26T01:19:17;9;6;5
34240;PMS7003;20503;50.200;19.508;2024-02-26T01:20:20;7;5;4
34240;PMS7003;20503;50.200;19.508;2024-02-26T01:21:22;7;5;4
34240;PMS7003;20503;50.200;19.508;2024-02-26T01:22:23;13;8;5
34240;PMS7003;20503;50.200;19.508;2024-02-26T01:23:25;13;8;5
34240;PMS7003;20503;50.200;19.508;2024-02-26T01:24:27;10;7;5
34240;PMS7003;20503;50.200;19.508;2024-02-26T01:25:28;8;5;4
34240;PMS7003;20503;50.200;19.508;2024-02-26T01:26:38;10;6;4
34240;PMS7003;20503;50.200;19.508;2024-02-26T01:27:40;7;6;5
34240;PMS7003;20503;50.200;19.508;2024-02-26T01:28:45;7;6;5
34240;PMS7003;20503;50.200;19.508;2024-02-26T01:29:46;8;7;5
34240;PMS7003;20503;50.200;19.508;2024-02-26T01:30:48;8;7;5
34240;PMS7003;20503;50.200;19.508;2024-02-26T01:31:49;10;7;5
34240;PMS7003;20503;50.200;19.508;2024-02-26T01:33:10;6;6;5
34240;PMS7003;20503;50.200;19.508;2024-02-26T01:34:12;8;7;4
34240;PMS7003;20503;50.200;19.508;2024-02-26T01:35:15;8;6;5
34240;PMS7003;20503;50.200;19.508;2024-02-26T01:36:16;8;6;5
34240;PMS7003;20503;50.200;19.508;2024-02-26T01:37:18;8;6;5
34240;PMS7003;20503;50.200;19.508;2024-02-26T01:38:19;9;6;5
34240;PMS7003;20503;50.200;19.508;2024-02-26T01:39:21;10;7;5
34240;PMS7003;20503;50.200;19.508;2024-02-26T01:40:23;10;7;5
34240;PMS7003;20503;50.200;19.508;2024-02-26T01:41:31;6;6;4
34240;PMS7003;20503;50.200;19.508;2024-02-26T01:42:33;6;6;4
34240;PMS7003;20503;50.200;19.508;2024-02-26T01:43:34;9;6;5
34240;PMS7003;20503;50.200;19.508;2024-02-26T01:44:36;9;6;5
34240;PMS7003;20503;50.200;19.508;2024-02-26T01:45:39;13;8;5
34240;PMS7003;20503;50.200;19.508;2024-02-26T01:46:40;13;8;5
34240;PMS7003;20503;50.200;19.508;2024-02-26T01:47:43;10;7;5
34240;PMS7003;20503;50.200;19.508;2024-02-26T01:48:44;11;8;5
34240;PMS7003;20503;50.200;19.508;2024-02-26T01:50:16;10;8;6
34240;PMS7003;20503;50.200;19.508;2024-02-26T01:51:20;10;6;4
34240;PMS7003;20503;50.200;19.508;2024-02-26T01:52:23;10;8;5
34240;PMS7003;20503;50.200;19.508;2024-02-26T01:53:25;10;8;5
34240;PMS7003;20503;50.200;19.508;2024-02-26T01:54:27;11;7;5
34240;PMS7003;20503;50.200;19.508;2024-02-26T01:55:32;10;8;5
34240;PMS7003;20503;50.200;19.508;2024-02-26T01:56:35;10;8;5
34240;PMS7003;20503;50.200;19.508;2024-02-26T01:57:38;10;8;5
34240;PMS7003;20503;50.200;19.508;2024-02-26T01:58:40;10;8;5
34240;PMS7003;20503;50.200;19.508;2024-02-26T01:59:44;9;7;5
34240;PMS7003;20503;50.200;19.508;2024-02-26T02:00:47;13;9;6
34240;PMS7003;20503;50.200;19.508;2024-02-26T02:01:48;13;9;6
34240;PMS7003;20503;50.200;19.508;2024-02-26T02:02:56;13;9;6
34240;PMS7003;20503;50.200;19.508;2024-02-26T02:03:58;13;9;6
34240;PMS7003;20503;50.200;19.508;2024-02-26T02:05:01;9;8;7
34240;PMS7003;20503;50.200;19.508;2024-02-26T02:06:30;13;9;5
34240;PMS7003;20503;50.200;19.508;2024-02-26T02:07:58;10;7;5
34240;PMS7003;20503;50.200;19.508;2024-02-26T02:09:00;8;7;5
34240;PMS7003;20503;50.200;19.508;2024-02-26T02:10:08;8;7;5
34240;PMS7003;20503;50.200;19.508;2024-02-26T02:11:21;12;8;6
34240;PMS7003;20503;50.200;19.508;2024-02-26T02:12:23;12;8;6
34240;PMS7003;20503;50.200;19.508;2024-02-26T02:13:25;10;8;6
34240;PMS7003;20503;50.200;19.508;2024-02-26T02:14:26;13;8;5
34240;PMS7003;20503;50.200;19.508;2024-02-26T02:15:28;13;8;5
34240;PMS7003;20503;50.200;19.508;2024-02-26T02:16:29;12;8;6
34240;PMS7003;20503;50.200;19.508;2024-02-26T02:17:30;13;8;5
34240;PMS7003;20503;50.200;19.508;2024-02-26T02:18:32;10;7;5
34240;PMS7003;20503;50.200;19.508;2024-02-26T02:19:34;10;7;5
34240;PMS7003;20503;50.200;19.508;2024-02-26T02:20:35;11;9;5
34240;PMS7003;20503;50.200;19.508;2024-02-26T02:21:38;13;7;5
34240;PMS7003;20503;50.200;19.508;2024-02-26T02:22:39;10;8;5
34240;PMS7003;20503;50.200;19.508;2024-02-26T02:23:40;10;8;5
34240;PMS7003;20503;50.200;19.508;2024-02-26T02:24:49;8;8;5
34240;PMS7003;20503;50.200;19.508;2024-02-26T02:26:05;12;9;5
34240;PMS7003;20503;50.200;19.508;2024-02-26T02:27:06;12;8;5
34240;PMS7003;20503;50.200;19.508;2024-02-26T02:28:07;12;8;5
34240;PMS7003;20503;50.200;19.508;2024-02-26T02:29:08;10;7;5
34240;PMS7003;20503;50.200;19.508;2024-02-26T02:30:10;10;7;5
34240;PMS7003;20503;50.200;19.508;2024-02-26T02:31:13;13;8;5
34240;PMS7003;20503;50.200;19.508;2024-02-26T02:32:16;12;9;6
34240;PMS7003;20503;50.200;19.508;2024-02-26T02:33:21;12;9;6
34240;PMS7003;20503;50.200;19.508;2024-02-26T02:34:24;12;8;6
34240;PMS7003;20503;50.200;19.508;2024-02-26T02:35:25;12;8;6
34240;PMS7003;20503;50.200;19.508;2024-02-26T02:36:27;15;10;7
34240;PMS7003;20503;50.200;19.508;2024-02-26T02:37:29;15;10;7
34240;PMS7003;20503;50.200;19.508;2024-02-26T02:38:54;11;8;5
34240;PMS7003;20503;50.200;19.508;2024-02-26T02:39:55;11;7;5
34240;PMS7003;20503;50.200;19.508;2024-02-26T02:40:59;11;7;5
34240;PMS7003;20503;50.200;19.508;2024-02-26T02:42:03;12;8;5
34240;PMS7003;20503;50.200;19.508;2024-02-26T02:43:05;11;6;4
34240;PMS7003;20503;50.200;19.508;2024-02-26T02:44:21;10;7;5
34240;PMS7003;20503;50.200;19.508;2024-02-26T02:45:40;7;6;4
34240;PMS7003;20503;50.200;19.508;2024-02-26T02:46:41;10;7;5
34240;PMS7003;20503;50.200;19.508;2024-02-26T02:47:43;10;7;5
34240;PMS7003;20503;50.200;19.508;2024-02-26T02:48:45;10;7;4
34240;PMS7003;20503;50.200;19.508;2024-02-26T02:49:47;10;7;4
34240;PMS7003;20503;50.200;19.508;2024-02-26T02:50:48;8;5;4
34240;PMS7003;20503;50.200;19.508;2024-02-26T02:52:07;10;7;5
34240;PMS7003;20503;50.200;19.508;2024-02-26T02:53:08;9;7;5
34240;PMS7003;20503;50.200;19.508;2024-02-26T02:54:11;9;7;5
34240;PMS7003;20503;50.200;19.508;2024-02-26T02:55:12;11;6;4
34240;PMS7003;20503;50.200;19.508;2024-02-26T02:56:13;11;6;4
34240;PMS7003;20503;50.200;19.508;2024-02-26T02:57:15;9;7;5
34240;PMS7003;20503;50.200;19.508;2024-02-26T02:58:16;9;7;5
34240;PMS7003;20503;50.200;19.508;2024-02-26T02:59:18;10;7;5
34240;PMS7003;20503;50.200;19.508;2024-02-26T03:00:19;10;7;5
34240;PMS7003;20503;50.200;19.508;2024-02-26T03:01:23;7;5;4
34240;PMS7003;20503;50.200;19.508;2024-02-26T03:02:24;8;5;4
34240;PMS7003;20503;50.200;19.508;2024-02-26T03:03:26;9;6;5
34240;PMS7003;20503;50.200;19.508;2024-02-26T03:04:29;8;6;4
34240;PMS7003;20503;50.200;19.508;2024-02-26T03:05:30;8;6;4
34240;PMS7003;20503;50.200;19.508;2024-02-26T03:06:31;14;8;6
34240;PMS7003;20503;50.200;19.508;2024-02-26T03:07:33;14;8;6
34240;PMS7003;20503;50.200;19.508;2024-02-26T03:08:34;14;10;8
34240;PMS7003;20503;50.200;19.508;2024-02-26T03:09:40;19;15;11
34240;PMS7003;20503;50.200;19.508;2024-02-26T03:10:41;19;15;11
34240;PMS7003;20503;50.200;19.508;2024-02-26T03:11:45;20;15;10
34240;PMS7003;20503;50.200;19.508;2024-02-26T03:12:46;20;15;10
34240;PMS7003;20503;50.200;19.508;2024-02-26T03:13:47;22;15;11
34240;PMS7003;20503;50.200;19.508;2024-02-26T03:14:49;19;15;10
34240;PMS7003;20503;50.200;19.508;2024-02-26T03:15:50;21;19;11
34240;PMS7003;20503;50.200;19.508;2024-02-26T03:16:54;26;17;11
34240;PMS7003;20503;50.200;19.508;2024-02-26T03:18:15;19;18;12
34240;PMS7003;20503;50.200;19.508;2024-02-26T03:19:46;22;17;12
34240;PMS7003;20503;50.200;19.508;2024-02-26T03:20:47;20;17;11
34240;PMS7003;20503;50.200;19.508;2024-02-26T03:21:50;20;17;11
34240;PMS7003;20503;50.200;19.508;2024-02-26T03:22:52;24;17;12
34240;PMS7003;20503;50.200;19.508;2024-02-26T03:23:53;21;16;11
34240;PMS7003;20503;50.200;19.508;2024-02-26T03:24:54;20;15;10
34240;PMS7003;20503;50.200;19.508;2024-02-26T03:25:56;19;16;10
34240;PMS7003;20503;50.200;19.508;2024-02-26T03:26:57;20;15;10
34240;PMS7003;20503;50.200;19.508;2024-02-26T03:27:58;21;15;11
34240;PMS7003;20503;50.200;19.508;2024-02-26T03:28:59;21;15;11
34240;PMS7003;20503;50.200;19.508;2024-02-26T03:30:04;17;14;9
34240;PMS7003;20503;50.200;19.508;2024-02-26T03:31:07;18;14;10
34240;PMS7003;20503;50.200;19.508;2024-02-26T03:32:35;19;17;11
34240;PMS7003;20503;50.200;19.508;2024-02-26T03:33:36;19;17;11
34240;PMS7003;20503;50.200;19.508;2024-02-26T03:34:38;20;16;11
34240;PMS7003;20503;50.200;19.508;2024-02-26T03:35:42;20;15;10
34240;PMS7003;20503;50.200;19.508;2024-02-26T03:36:44;20;15;10
34240;PMS7003;20503;50.200;19.508;2024-02-26T03:37:46;21;14;10
34240;PMS7003;20503;50.200;19.508;2024-02-26T03:38:48;21;14;10
34240;PMS7003;20503;50.200;19.508;2024-02-26T03:39:49;19;13;9
34240;PMS7003;20503;50.200;19.508;2024-02-26T03:40:50;18;13;9
34240;PMS7003;20503;50.200;19.508;2024-02-26T03:41:52;18;13;9
34240;PMS7003;20503;50.200;19.508;2024-02-26T03:42:55;16;14;9
34240;PMS7003;20503;50.200;19.508;2024-02-26T03:43:58;16;14;9
34240;PMS7003;20503;50.200;19.508;2024-02-26T03:44:59;19;14;8
34240;PMS7003;20503;50.200;19.508;2024-02-26T03:46:01;19;14;8
34240;PMS7003;20503;50.200;19.508;2024-02-26T03:47:03;15;11;8
34240;PMS7003;20503;50.200;19.508;2024-02-26T03:48:05;16;11;8
34240;PMS7003;20503;50.200;19.508;2024-02-26T03:49:07;16;11;8
34240;PMS7003;20503;50.200;19.508;2024-02-26T03:50:08;17;12;8
34240;PMS7003;20503;50.200;19.508;2024-02-26T03:51:10;17;12;8
34240;PMS7003;20503;50.200;19.508;2024-02-26T03:52:11;15;10;7
34240;PMS7003;20503;50.200;19.508;2024-02-26T03:53:14;13;10;8
34240;PMS7003;20503;50.200;19.508;2024-02-26T03:54:21;16;12;8
34240;PMS7003;20503;50.200;19.508;2024-02-26T03:55:23;16;12;8
34240;PMS7003;20503;50.200;19.508;2024-02-26T03:56:50;17;11;7
34240;PMS7003;20503;50.200;19.508;2024-02-26T03:57:52;14;8;7
34240;PMS7003;20503;50.200;19.508;2024-02-26T03:58:53;14;8;7
34240;PMS7003;20503;50.200;19.508;2024-02-26T03:59:56;13;10;7
34240;PMS7003;20503;50.200;19.508;2024-02-26T04:00:58;13;10;7
34240;PMS7003;20503;50.200;19.508;2024-02-26T04:02:01;14;10;7
34240;PMS7003;20503;50.200;19.508;2024-02-26T04:03:12;12;9;6
34240;PMS7003;20503;50.200;19.508;2024-02-26T04:04:13;13;10;7
34240;PMS7003;20503;50.200;19.508;2024-02-26T04:05:14;11;7;5
34240;PMS7003;20503;50.200;19.508;2024-02-26T04:06:16;13;9;7
34240;PMS7003;20503;50.200;19.508;2024-02-26T04:07:21;11;8;5
34240;PMS7003;20503;50.200;19.508;2024-02-26T04:08:23;11;8;5
34240;PMS7003;20503;50.200;19.508;2024-02-26T04:09:24;13;8;5
34240;PMS7003;20503;50.200;19.508;2024-02-26T04:10:25;13;8;5
34240;PMS7003;20503;50.200;19.508;2024-02-26T04:11:27;13;9;6
34240;PMS7003;20503;50.200;19.508;2024-02-26T04:12:29;12;9;6
34240;PMS7003;20503;50.200;19.508;2024-02-26T04:13:31;12;7;5
34240;PMS7003;20503;50.200;19.508;2024-02-26T04:14:33;12;7;5
34240;PMS7003;20503;50.200;19.508;2024-02-26T04:15:34;12;7;5
34240;PMS7003;20503;50.200;19.508;2024-02-26T04:16:35;11;8;5
34240;PMS7003;20503;50.200;19.508;2024-02-26T04:17:37;11;8;5
34240;PMS7003;20503;50.200;19.508;2024-02-26T04:18:39;10;7;5
34240;PMS7003;20503;50.200;19.508;2024-02-26T04:19:40;10;6;4
34240;PMS7003;20503;50.200;19.508;2024-02-26T04:20:41;15;8;5
34240;PMS7003;20503;50.200;19.508;2024-02-26T04:21:59;10;6;5
34240;PMS7003;20503;50.200;19.508;2024-02-26T04:23:27;14;8;5
34240;PMS7003;20503;50.200;19.508;2024-02-26T04:24:28;14;8;5
34240;PMS7003;20503;50.200;19.508;2024-02-26T04:25:29;10;7;5
34240;PMS7003;20503;50.200;19.508;2024-02-26T04:26:31;10;8;5
34240;PMS7003;20503;50.200;19.508;2024-02-26T04:27:32;10;8;5
34240;PMS7003;20503;50.200;19.508;2024-02-26T04:28:36;9;6;4
34240;PMS7003;20503;50.200;19.508;2024-02-26T04:29:37;9;6;4
34240;PMS7003;20503;50.200;19.508;2024-02-26T04:30:39;10;7;5
34240;PMS7003;20503;50.200;19.508;2024-02-26T04:31:40;10;7;5
34240;PMS7003;20503;50.200;19.508;2024-02-26T04:32:43;10;7;5
34240;PMS7003;20503;50.200;19.508;2024-02-26T04:33:44;11;8;4
34240;PMS7003;20503;50.200;19.508;2024-02-26T04:34:46;11;9;7
34240;PMS7003;20503;50.200;19.508;2024-02-26T04:35:47;11;9;7
34240;PMS7003;20503;50.200;19.508;2024-02-26T04:36:48;16;11;8
34240;PMS7003;20503;50.200;19.508;2024-02-26T04:37:50;16;11;8
34240;PMS7003;20503;50.200;19.508;2024-02-26T04:38:51;16;12;8
34240;PMS7003;20503;50.200;19.508;2024-02-26T04:39:59;16;12;9
34240;PMS7003;20503;50.200;19.508;2024-02-26T04:41:10;18;13;9
34240;PMS7003;20503;50.200;19.508;2024-02-26T04:42:13;17;14;11
34240;PMS7003;20503;50.200;19.508;2024-02-26T04:43:14;17;14;11
34240;PMS7003;20503;50.200;19.508;2024-02-26T04:44:19;19;13;9
34240;PMS7003;20503;50.200;19.508;2024-02-26T04:45:20;18;13;9
34240;PMS7003;20503;50.200;19.508;2024-02-26T04:46:21;23;14;9
34240;PMS7003;20503;50.200;19.508;2024-02-26T04:47:23;18;11;8
34240;PMS7003;20503;50.200;19.508;2024-02-26T04:48:24;18;11;8
34240;PMS7003;20503;50.200;19.508;2024-02-26T04:49:25;17;12;9
34240;PMS7003;20503;50.200;19.508;2024-02-26T04:50:27;17;12;9
34240;PMS7003;20503;50.200;19.508;2024-02-26T04:51:28;16;12;9
34240;PMS7003;20503;50.200;19.508;2024-02-26T04:52:30;20;13;9
34240;PMS7003;20503;50.200;19.508;2024-02-26T04:53:31;19;12;8
34240;PMS7003;20503;50.200;19.508;2024-02-26T04:54:32;17;13;9
34240;PMS7003;20503;50.200;19.508;2024-02-26T04:55:34;17;13;9
34240;PMS7003;20503;50.200;19.508;2024-02-26T04:56:35;17;11;8
34240;PMS7003;20503;50.200;19.508;2024-02-26T04:57:37;17;11;8
34240;PMS7003;20503;50.200;19.508;2024-02-26T04:58:38;15;12;8
34240;PMS7003;20503;50.200;19.508;2024-02-26T04:59:40;17;13;9
34240;PMS7003;20503;50.200;19.508;2024-02-26T05:00:43;17;13;9
34240;PMS7003;20503;50.200;19.508;2024-02-26T05:01:45;17;12;9
34240;PMS7003;20503;50.200;19.508;2024-02-26T05:02:47;17;12;9
34240;PMS7003;20503;50.200;19.508;2024-02-26T05:03:49;17;12;8
34240;PMS7003;20503;50.200;19.508;2024-02-26T05:04:50;15;11;8
34240;PMS7003;20503;50.200;19.508;2024-02-26T05:05:52;15;11;8
34240;PMS7003;20503;50.200;19.508;2024-02-26T05:06:53;13;9;7
34240;PMS7003;20503;50.200;19.508;2024-02-26T05:07:55;13;9;7
34240;PMS7003;20503;50.200;19.508;2024-02-26T05:08:56;14;8;6
34240;PMS7003;20503;50.200;19.508;2024-02-26T05:09:57;14;8;6
34240;PMS7003;20503;50.200;19.508;2024-02-26T05:11:01;12;9;7
34240;PMS7003;20503;50.200;19.508;2024-02-26T05:12:03;11;9;6
34240;PMS7003;20503;50.200;19.508;2024-02-26T05:13:06;11;9;6
34240;PMS7003;20503;50.200;19.508;2024-02-26T05:14:09;14;9;7
34240;PMS7003;20503;50.200;19.508;2024-02-26T05:15:11;12;10;7
34240;PMS7003;20503;50.200;19.508;2024-02-26T05:16:19;14;8;7
34240;PMS7003;20503;50.200;19.508;2024-02-26T05:17:25;14;8;7
34240;PMS7003;20503;50.200;19.508;2024-02-26T05:18:27;15;9;7
34240;PMS7003;20503;50.200;19.508;2024-02-26T05:19:47;17;8;7
34240;PMS7003;20503;50.200;19.508;2024-02-26T05:20:48;17;8;7
34240;PMS7003;20503;50.200;19.508;2024-02-26T05:21:50;15;9;7
34240;PMS7003;20503;50.200;19.508;2024-02-26T05:22:57;16;11;8
34240;PMS7003;20503;50.200;19.508;2024-02-26T05:24:15;16;11;8
34240;PMS7003;20503;50.200;19.508;2024-02-26T05:25:17;16;11;8
34240;PMS7003;20503;50.200;19.508;2024-02-26T05:26:22;18;14;8
34240;PMS7003;20503;50.200;19.508;2024-02-26T05:27:24;18;14;10
34240;PMS7003;20503;50.200;19.508;2024-02-26T05:28:25;19;16;12
34240;PMS7003;20503;50.200;19.508;2024-02-26T05:29:27;19;16;12
34240;PMS7003;20503;50.200;19.508;2024-02-26T05:30:43;15;10;7
34240;PMS7003;20503;50.200;19.508;2024-02-26T05:31:44;16;12;8
34240;PMS7003;20503;50.200;19.508;2024-02-26T05:32:45;16;12;8
34240;PMS7003;20503;50.200;19.508;2024-02-26T05:34:11;14;12;8
34240;PMS7003;20503;50.200;19.508;2024-02-26T05:35:16;14;12;8
34240;PMS7003;20503;50.200;19.508;2024-02-26T05:36:20;17;11;8
34240;PMS7003;20503;50.200;19.508;2024-02-26T05:37:23;13;9;6
34240;PMS7003;20503;50.200;19.508;2024-02-26T05:38:30;23;20;16
34240;PMS7003;20503;50.200;19.508;2024-02-26T05:39:39;39;31;23
34240;PMS7003;20503;50.200;19.508;2024-02-26T05:40:40;29;24;16
34240;PMS7003;20503;50.200;19.508;2024-02-26T05:41:41;29;24;16
34240;PMS7003;20503;50.200;19.508;2024-02-26T05:42:43;19;14;11
34240;PMS7003;20503;50.200;19.508;2024-02-26T05:43:49;41;35;24
34240;PMS7003;20503;50.200;19.508;2024-02-26T05:44:51;38;31;22
34240;PMS7003;20503;50.200;19.508;2024-02-26T05:45:52;54;41;28
34240;PMS7003;20503;50.200;19.508;2024-02-26T05:46:55;54;41;28
34240;PMS7003;20503;50.200;19.508;2024-02-26T05:47:57;38;33;22
34240;PMS7003;20503;50.200;19.508;2024-02-26T05:48:58;28;25;16
34240;PMS7003;20503;50.200;19.508;2024-02-26T05:49:59;25;20;14
34240;PMS7003;20503;50.200;19.508;2024-02-26T05:51:02;25;20;14
34240;PMS7003;20503;50.200;19.508;2024-02-26T05:52:06;61;50;33
34240;PMS7003;20503;50.200;19.508;2024-02-26T05:53:08;61;50;33
34240;PMS7003;20503;50.200;19.508;2024-02-26T05:54:11;62;49;33
34240;PMS7003;20503;50.200;19.508;2024-02-26T05:55:12;28;23;16
34240;PMS7003;20503;50.200;19.508;2024-02-26T05:56:34;38;30;18
34240;PMS7003;20503;50.200;19.508;2024-02-26T05:57:35;47;39;25
34240;PMS7003;20503;50.200;19.508;2024-02-26T05:58:37;47;39;25
34240;PMS7003;20503;50.200;19.508;2024-02-26T05:59:38;44;34;22
34240;PMS7003;20503;50.200;19.508;2024-02-26T06:00:53;93;75;51
34240;PMS7003;20503;50.200;19.508;2024-02-26T06:01:54;93;75;51
34240;PMS7003;20503;50.200;19.508;2024-02-26T06:02:56;96;78;52
34240;PMS7003;20503;50.200;19.508;2024-02-26T06:03:59;96;78;52
34240;PMS7003;20503;50.200;19.508;2024-02-26T06:05:00;71;55;37
34240;PMS7003;20503;50.200;19.508;2024-02-26T06:06:02;71;55;37
34240;PMS7003;20503;50.200;19.508;2024-02-26T06:07:04;69;54;35
34240;PMS7003;20503;50.200;19.508;2024-02-26T06:08:06;69;54;35
34240;PMS7003;20503;50.200;19.508;2024-02-26T06:09:07;48;39;26
34240;PMS7003;20503;50.200;19.508;2024-02-26T06:10:18;33;25;17
34240;PMS7003;20503;50.200;19.508;2024-02-26T06:11:23;33;25;17
34240;PMS7003;20503;50.200;19.508;2024-02-26T06:12:24;43;35;24
34240;PMS7003;20503;50.200;19.508;2024-02-26T06:13:29;43;35;24
34240;PMS7003;20503;50.200;19.508;2024-02-26T06:14:31;35;28;20
34240;PMS7003;20503;50.200;19.508;2024-02-26T06:15:33;19;16;12
34240;PMS7003;20503;50.200;19.508;2024-02-26T06:16:34;19;16;12
34240;PMS7003;20503;50.200;19.508;2024-02-26T06:17:35;7;7;5
34240;PMS7003;20503;50.200;19.508;2024-02-26T06:18:43;11;7;6
34240;PMS7003;20503;50.200;19.508;2024-02-26T06:20:11;14;9;7
34240;PMS7003;20503;50.200;19.508;2024-02-26T06:21:13;14;10;8
34240;PMS7003;20503;50.200;19.508;2024-02-26T06:22:15;20;16;12
34240;PMS7003;20503;50.200;19.508;2024-02-26T06:23:16;20;16;12
34240;PMS7003;20503;50.200;19.508;2024-02-26T06:24:17;29;25;18
34240;PMS7003;20503;50.200;19.508;2024-02-26T06:25:22;32;28;23
34240;PMS7003;20503;50.200;19.508;2024-02-26T06:26:25;18;16;12
34240;PMS7003;20503;50.200;19.508;2024-02-26T06:27:29;16;14;11
34240;PMS7003;20503;50.200;19.508;2024-02-26T06:28:31;17;13;10
34240;PMS7003;20503;50.200;19.508;2024-02-26T06:29:36;14;11;9
34240;PMS7003;20503;50.200;19.508;2024-02-26T06:30:38;14;11;9
34240;PMS7003;20503;50.200;19.508;2024-02-26T06:31:39;11;10;8
34240;PMS7003;20503;50.200;19.508;2024-02-26T06:32:41;11;10;8
34240;PMS7003;20503;50.200;19.508;2024-02-26T06:33:43;11;8;7
34240;PMS7003;20503;50.200;19.508;2024-02-26T06:35:05;6;5;3
34240;PMS7003;20503;50.200;19.508;2024-02-26T06:36:12;6;5;3
34240;PMS7003;20503;50.200;19.508;2024-02-26T06:37:14;6;4;2
34240;PMS7003;20503;50.200;19.508;2024-02-26T06:38:17;5;5;2
34240;PMS7003;20503;50.200;19.508;2024-02-26T06:39:46;5;3;2
34240;PMS7003;20503;50.200;19.508;2024-02-26T06:40:48;5;3;2
34240;PMS7003;20503;50.200;19.508;2024-02-26T06:41:49;6;3;2
34240;PMS7003;20503;50.200;19.508;2024-02-26T06:42:50;6;4;3
34240;PMS7003;20503;50.200;19.508;2024-02-26T06:43:52;6;4;3
34240;PMS7003;20503;50.200;19.508;2024-02-26T06:45:05;5;4;2
34240;PMS7003;20503;50.200;19.508;2024-02-26T06:46:08;5;4;2
34240;PMS7003;20503;50.200;19.508;2024-02-26T06:47:09;4;3;3
34240;PMS7003;20503;50.200;19.508;2024-02-26T06:48:12;4;3;3
34240;PMS7003;20503;50.200;19.508;2024-02-26T06:49:13;5;3;2
34240;PMS7003;20503;50.200;19.508;2024-02-26T06:50:27;2;2;2
34240;PMS7003;20503;50.200;19.508;2024-02-26T06:51:28;2;2;2
34240;PMS7003;20503;50.200;19.508;2024-02-26T06:52:29;3;2;2
34240;PMS7003;20503;50.200;19.508;2024-02-26T06:53:31;3;2;2
34240;PMS7003;20503;50.200;19.508;2024-02-26T06:54:32;4;2;2